sensor_id;sensor_type;location;lat;lon;timestamp;pressure;altitude;pressure_sealevel;temperature;humidity
82171;BME280;71755;48.038;14.346;2023-12-28T00:01:39;97689.69;;;1.81;91.05
82171;BME280;71755;48.038;14.346;2023-12-28T00:04:05;97695.97;;;1.80;92.55
82171;BME280;71755;48.038;14.346;2023-12-28T00:06:31;97691.56;;;1.66;92.95
82171;BME280;71755;48.038;14.346;2023-12-28T00:08:57;97697.66;;;1.66;92.71
82171;BME280;71755;48.038;14.346;2023-12-28T00:11:26;97689.94;;;1.65;92.39
82171;BME280;71755;48.038;14.346;2023-12-28T00:13:52;97696.53;;;1.75;92.10
82171;BME280;71755;48.038;14.346;2023-12-28T00:16:18;97690.75;;;1.65;92.85
82171;BME280;71755;48.038;14.346;2023-12-28T00:18:43;97684.47;;;1.66;92.96
82171;BME280;71755;48.038;14.346;2023-12-28T00:21:09;97677.63;;;1.50;92.91
82171;BME280;71755;48.038;14.346;2023-12-28T00:23:35;97681.59;;;1.46;92.38
82171;BME280;71755;48.038;14.346;2023-12-28T00:26:01;97685.97;;;1.39;92.51
82171;BME280;71755;48.038;14.346;2023-12-28T00:28:28;97675.38;;;1.69;92.34
82171;BME280;71755;48.038;14.346;2023-12-28T00:30:53;97677.91;;;1.77;91.71
82171;BME280;71755;48.038;14.346;2023-12-28T00:33:19;97673.28;;;1.79;91.28
82171;BME280;71755;48.038;14.346;2023-12-28T00:35:45;97682.28;;;1.70;91.87
82171;BME280;71755;48.038;14.346;2023-12-28T00:38:11;97691.13;;;1.47;92.84
82171;BME280;71755;48.038;14.346;2023-12-28T00:40:37;97692.97;;;1.17;93.31
82171;BME280;71755;48.038;14.346;2023-12-28T00:43:03;97688.22;;;0.98;93.88
82171;BME280;71755;48.038;14.346;2023-12-28T00:45:29;97694.66;;;0.96;94.88
82171;BME280;71755;48.038;14.346;2023-12-28T00:47:55;97697.84;;;0.91;95.05
82171;BME280;71755;48.038;14.346;2023-12-28T00:50:22;97688.13;;;0.77;96.24
82171;BME280;71755;48.038;14.346;2023-12-28T00:52:48;97703.03;;;0.61;96.48
82171;BME280;71755;48.038;14.346;2023-12-28T00:55:15;97708.56;;;0.52;97.92
82171;BME280;71755;48.038;14.346;2023-12-28T00:57:41;97722.63;;;0.36;98.45
82171;BME280;71755;48.038;14.346;2023-12-28T01:00:07;97725.66;;;0.25;98.80
82171;BME280;71755;48.038;14.346;2023-12-28T01:02:33;97729.56;;;0.29;99.70
82171;BME280;71755;48.038;14.346;2023-12-28T01:04:59;97737.28;;;0.30;99.81
82171;BME280;71755;48.038;14.346;2023-12-28T01:07:24;97746.56;;;0.18;98.46
82171;BME280;71755;48.038;14.346;2023-12-28T01:09:50;97749.19;;;0.18;98.30
82171;BME280;71755;48.038;14.346;2023-12-28T01:12:16;97740.19;;;0.13;98.17
82171;BME280;71755;48.038;14.346;2023-12-28T01:14:42;97738.16;;;0.23;98.38
82171;BME280;71755;48.038;14.346;2023-12-28T01:17:08;97736.56;;;0.37;97.51
82171;BME280;71755;48.038;14.346;2023-12-28T01:19:34;97737.53;;;0.44;96.52
82171;BME280;71755;48.038;14.346;2023-12-28T01:22:00;97736.22;;;0.62;95.32
82171;BME280;71755;48.038;14.346;2023-12-28T01:24:26;97750.72;;;0.58;96.02
82171;BME280;71755;48.038;14.346;2023-12-28T01:26:52;97735.53;;;0.46;96.91
82171;BME280;71755;48.038;14.346;2023-12-28T01:29:18;97740.44;;;0.26;97.83
82171;BME280;71755;48.038;14.346;2023-12-28T01:31:44;97749.31;;;0.02;99.33
82171;BME280;71755;48.038;14.346;2023-12-28T01:34:09;97757.41;;;-0.16;100.00
82171;BME280;71755;48.038;14.346;2023-12-28T01:36:35;97763.41;;;-0.38;100.00
82171;BME280;71755;48.038;14.346;2023-12-28T01:39:01;97761.84;;;-0.55;100.00
82171;BME280;71755;48.038;14.346;2023-12-28T01:41:27;97754.31;;;-0.58;100.00
82171;BME280;71755;48.038;14.346;2023-12-28T01:43:53;97754.94;;;-0.48;100.00
82171;BME280;71755;48.038;14.346;2023-12-28T01:46:21;97756.06;;;-0.43;100.00
82171;BME280;71755;48.038;14.346;2023-12-28T01:48:49;97750.16;;;-0.37;100.00
82171;BME280;71755;48.038;14.346;2023-12-28T01:51:16;97747.00;;;-0.32;100.00
82171;BME280;71755;48.038;14.346;2023-12-28T01:53:43;97754.78;;;-0.16;99.88
82171;BME280;71755;48.038;14.346;2023-12-28T01:56:10;97754.75;;;-0.08;99.38
82171;BME280;71755;48.038;14.346;2023-12-28T01:58:37;97741.91;;;-0.03;99.17
82171;BME280;71755;48.038;14.346;2023-12-28T02:01:06;97745.69;;;0.03;98.53
82171;BME280;71755;48.038;14.346;2023-12-28T02:03:32;97739.63;;;0.03;98.01
82171;BME280;71755;48.038;14.346;2023-12-28T02:05:59;97745.63;;;-0.20;98.88
82171;BME280;71755;48.038;14.346;2023-12-28T02:08:26;97761.59;;;-0.29;99.61
82171;BME280;71755;48.038;14.346;2023-12-28T02:10:52;97774.22;;;-0.25;99.21
82171;BME280;71755;48.038;14.346;2023-12-28T02:13:21;97773.25;;;-0.40;100.00
82171;BME280;71755;48.038;14.346;2023-12-28T02:15:54;97776.31;;;-0.20;98.93
82171;BME280;71755;48.038;14.346;2023-12-28T02:18:38;97787.03;;;-0.30;99.11
82171;BME280;71755;48.038;14.346;2023-12-28T02:21:06;97787.00;;;-0.22;98.81
82171;BME280;71755;48.038;14.346;2023-12-28T02:23:32;97777.47;;;-0.23;98.75
82171;BME280;71755;48.038;14.346;2023-12-28T02:25:59;97787.53;;;-0.04;98.00
82171;BME280;71755;48.038;14.346;2023-12-28T02:28:26;97798.38;;;0.02;97.54
82171;BME280;71755;48.038;14.346;2023-12-28T02:30:51;97794.13;;;0.01;97.34
82171;BME280;71755;48.038;14.346;2023-12-28T02:33:35;97802.00;;;0.01;97.26
82171;BME280;71755;48.038;14.346;2023-12-28T02:36:11;97803.59;;;0.10;96.96
82171;BME280;71755;48.038;14.346;2023-12-28T02:38:38;97797.63;;;0.16;96.25
82171;BME280;71755;48.038;14.346;2023-12-28T02:41:05;97790.69;;;0.23;96.04
82171;BME280;71755;48.038;14.346;2023-12-28T02:43:31;97788.00;;;0.39;95.45
82171;BME280;71755;48.038;14.346;2023-12-28T02:45:58;97782.03;;;0.45;94.29
82171;BME280;71755;48.038;14.346;2023-12-28T02:48:24;97779.78;;;0.34;94.32
82171;BME280;71755;48.038;14.346;2023-12-28T02:50:51;97783.75;;;0.30;94.45
82171;BME280;71755;48.038;14.346;2023-12-28T02:53:17;97788.91;;;0.46;94.51
82171;BME280;71755;48.038;14.346;2023-12-28T02:55:43;97784.59;;;0.53;94.22
82171;BME280;71755;48.038;14.346;2023-12-28T02:58:09;97779.00;;;0.56;93.88
82171;BME280;71755;48.038;14.346;2023-12-28T03:00:35;97792.75;;;0.36;93.67
82171;BME280;71755;48.038;14.346;2023-12-28T03:03:01;97783.75;;;0.07;94.35
82171;BME280;71755;48.038;14.346;2023-12-28T03:05:27;97785.78;;;-0.11;95.60
82171;BME280;71755;48.038;14.346;2023-12-28T03:07:52;97778.22;;;-0.06;95.76
82171;BME280;71755;48.038;14.346;2023-12-28T03:10:21;97780.06;;;0.16;95.74
82171;BME280;71755;48.038;14.346;2023-12-28T03:12:47;97778.97;;;0.34;95.40
82171;BME280;71755;48.038;14.346;2023-12-28T03:15:13;97773.22;;;0.38;94.87
82171;BME280;71755;48.038;14.346;2023-12-28T03:17:39;97770.59;;;0.38;94.06
82171;BME280;71755;48.038;14.346;2023-12-28T03:20:06;97777.50;;;0.31;93.49
82171;BME280;71755;48.038;14.346;2023-12-28T03:22:31;97773.53;;;0.35;93.48
82171;BME280;71755;48.038;14.346;2023-12-28T03:24:57;97783.38;;;0.41;92.95
82171;BME280;71755;48.038;14.346;2023-12-28T03:27:23;97785.38;;;0.39;92.76
82171;BME280;71755;48.038;14.346;2023-12-28T03:29:49;97783.28;;;0.26;92.87
82171;BME280;71755;48.038;14.346;2023-12-28T03:32:15;97791.34;;;0.25;93.27
82171;BME280;71755;48.038;14.346;2023-12-28T03:34:41;97811.06;;;0.21;93.45
82171;BME280;71755;48.038;14.346;2023-12-28T03:37:07;97813.28;;;0.09;94.25
82171;BME280;71755;48.038;14.346;2023-12-28T03:39:32;97823.38;;;-0.11;94.67
82171;BME280;71755;48.038;14.346;2023-12-28T03:42:00;97813.88;;;-0.20;95.13
82171;BME280;71755;48.038;14.346;2023-12-28T03:44:25;97815.03;;;-0.22;95.55
82171;BME280;71755;48.038;14.346;2023-12-28T03:46:51;97816.22;;;-0.25;95.71
82171;BME280;71755;48.038;14.346;2023-12-28T03:49:20;97816.69;;;-0.21;95.68
82171;BME280;71755;48.038;14.346;2023-12-28T03:51:49;97812.50;;;-0.08;95.36
82171;BME280;71755;48.038;14.346;2023-12-28T03:54:18;97819.81;;;0.13;95.01
82171;BME280;71755;48.038;14.346;2023-12-28T03:56:46;97821.97;;;0.10;94.18
82171;BME280;71755;48.038;14.346;2023-12-28T03:59:12;97828.91;;;0.03;93.65
82171;BME280;71755;48.038;14.346;2023-12-28T04:01:40;97828.91;;;0.03;93.40
82171;BME280;71755;48.038;14.346;2023-12-28T04:04:06;97812.81;;;0.06;93.54
82171;BME280;71755;48.038;14.346;2023-12-28T04:06:32;97809.53;;;0.04;93.51
82171;BME280;71755;48.038;14.346;2023-12-28T04:08:58;97826.22;;;0.11;93.42
82171;BME280;71755;48.038;14.346;2023-12-28T04:11:24;97819.94;;;0.20;93.23
82171;BME280;71755;48.038;14.346;2023-12-28T04:13:50;97823.56;;;0.19;92.89
82171;BME280;71755;48.038;14.346;2023-12-28T04:16:16;97818.31;;;0.19;92.77
82171;BME280;71755;48.038;14.346;2023-12-28T04:18:42;97818.59;;;0.24;92.21
82171;BME280;71755;48.038;14.346;2023-12-28T04:21:12;97818.78;;;0.22;92.25
82171;BME280;71755;48.038;14.346;2023-12-28T04:23:39;97820.59;;;0.22;91.89
82171;BME280;71755;48.038;14.346;2023-12-28T04:26:06;97823.56;;;0.19;92.29
82171;BME280;71755;48.038;14.346;2023-12-28T04:28:32;97837.69;;;0.18;92.70
82171;BME280;71755;48.038;14.346;2023-12-28T04:31:08;97830.16;;;0.15;92.43
82171;BME280;71755;48.038;14.346;2023-12-28T04:33:34;97827.88;;;0.12;92.50
82171;BME280;71755;48.038;14.346;2023-12-28T04:36:03;97838.06;;;0.07;92.21
82171;BME280;71755;48.038;14.346;2023-12-28T04:38:33;97836.31;;;-0.09;92.95
82171;BME280;71755;48.038;14.346;2023-12-28T04:41:00;97830.38;;;-0.03;92.90
82171;BME280;71755;48.038;14.346;2023-12-28T04:43:26;97830.41;;;-0.11;93.08
82171;BME280;71755;48.038;14.346;2023-12-28T04:45:53;97825.50;;;-0.14;93.60
82171;BME280;71755;48.038;14.346;2023-12-28T04:48:19;97827.63;;;-0.10;93.56
82171;BME280;71755;48.038;14.346;2023-12-28T04:50:47;97820.94;;;-0.20;94.54
82171;BME280;71755;48.038;14.346;2023-12-28T04:53:14;97814.38;;;-0.16;94.66
82171;BME280;71755;48.038;14.346;2023-12-28T04:55:40;97806.81;;;-0.19;94.81
82171;BME280;71755;48.038;14.346;2023-12-28T04:58:06;97800.81;;;-0.28;95.15
82171;BME280;71755;48.038;14.346;2023-12-28T05:00:31;97808.97;;;-0.23;94.82
82171;BME280;71755;48.038;14.346;2023-12-28T05:02:57;97812.03;;;-0.11;94.60
82171;BME280;71755;48.038;14.346;2023-12-28T05:05:23;97821.34;;;-0.01;94.41
82171;BME280;71755;48.038;14.346;2023-12-28T05:07:49;97814.44;;;-0.02;93.94
82171;BME280;71755;48.038;14.346;2023-12-28T05:10:14;97811.50;;;0.02;93.31
82171;BME280;71755;48.038;14.346;2023-12-28T05:12:40;97825.13;;;-0.03;92.64
82171;BME280;71755;48.038;14.346;2023-12-28T05:15:06;97821.84;;;-0.05;92.60
82171;BME280;71755;48.038;14.346;2023-12-28T05:17:33;97838.09;;;-0.02;92.56
82171;BME280;71755;48.038;14.346;2023-12-28T05:19:58;97836.44;;;-0.03;92.37
82171;BME280;71755;48.038;14.346;2023-12-28T05:22:24;97828.75;;;-0.04;92.19
82171;BME280;71755;48.038;14.346;2023-12-28T05:24:50;97831.28;;;-0.19;92.13
82171;BME280;71755;48.038;14.346;2023-12-28T05:27:16;97842.00;;;-0.37;91.66
82171;BME280;71755;48.038;14.346;2023-12-28T05:29:41;97846.09;;;-0.42;92.16
82171;BME280;71755;48.038;14.346;2023-12-28T05:32:07;97838.41;;;-0.44;92.35
82171;BME280;71755;48.038;14.346;2023-12-28T05:34:33;97839.53;;;-0.46;93.16
82171;BME280;71755;48.038;14.346;2023-12-28T05:36:58;97844.78;;;-0.46;94.07
82171;BME280;71755;48.038;14.346;2023-12-28T05:39:24;97847.72;;;-0.41;94.61
82171;BME280;71755;48.038;14.346;2023-12-28T05:41:50;97838.75;;;-0.55;95.34
82171;BME280;71755;48.038;14.346;2023-12-28T05:44:16;97833.34;;;-0.53;95.35
82171;BME280;71755;48.038;14.346;2023-12-28T05:46:42;97832.00;;;-0.49;95.46
82171;BME280;71755;48.038;14.346;2023-12-28T05:49:08;97838.22;;;-0.34;94.26
82171;BME280;71755;48.038;14.346;2023-12-28T05:51:38;97843.47;;;0.44;88.69
82171;BME280;71755;48.038;14.346;2023-12-28T05:54:05;97835.66;;;0.28;89.83
82171;BME280;71755;48.038;14.346;2023-12-28T05:56:31;97833.44;;;0.17;90.48
82171;BME280;71755;48.038;14.346;2023-12-28T05:58:57;97838.22;;;0.13;90.15
82171;BME280;71755;48.038;14.346;2023-12-28T06:01:24;97861.72;;;0.07;90.31
82171;BME280;71755;48.038;14.346;2023-12-28T06:03:50;97866.66;;;-0.07;90.81
82171;BME280;71755;48.038;14.346;2023-12-28T06:06:18;97850.56;;;-0.04;91.00
82171;BME280;71755;48.038;14.346;2023-12-28T06:08:44;97850.09;;;-0.07;91.14
82171;BME280;71755;48.038;14.346;2023-12-28T06:11:10;97857.91;;;-0.30;91.42
82171;BME280;71755;48.038;14.346;2023-12-28T06:13:36;97848.03;;;-0.28;91.49
82171;BME280;71755;48.038;14.346;2023-12-28T06:16:02;97847.91;;;-0.35;91.74
82171;BME280;71755;48.038;14.346;2023-12-28T06:18:28;97849.50;;;-0.25;91.78
82171;BME280;71755;48.038;14.346;2023-12-28T06:20:54;97851.66;;;-0.29;91.51
82171;BME280;71755;48.038;14.346;2023-12-28T06:23:21;97853.97;;;-0.34;91.87
82171;BME280;71755;48.038;14.346;2023-12-28T06:25:47;97851.19;;;-0.33;92.13
82171;BME280;71755;48.038;14.346;2023-12-28T06:28:13;97840.84;;;-0.42;93.75
82171;BME280;71755;48.038;14.346;2023-12-28T06:30:39;97843.13;;;-0.31;93.79
82171;BME280;71755;48.038;14.346;2023-12-28T06:33:05;97852.50;;;0.11;95.73
82171;BME280;71755;48.038;14.346;2023-12-28T06:35:31;97855.28;;;0.48;97.28
82171;BME280;71755;48.038;14.346;2023-12-28T06:37:57;97852.81;;;0.70;97.40
82171;BME280;71755;48.038;14.346;2023-12-28T06:40:23;97856.09;;;1.17;96.69
82171;BME280;71755;48.038;14.346;2023-12-28T06:42:49;97855.88;;;0.81;94.72
82171;BME280;71755;48.038;14.346;2023-12-28T06:45:16;97849.53;;;0.68;93.77
82171;BME280;71755;48.038;14.346;2023-12-28T06:47:41;97861.34;;;0.49;92.43
82171;BME280;71755;48.038;14.346;2023-12-28T06:50:08;97861.41;;;0.32;91.63
82171;BME280;71755;48.038;14.346;2023-12-28T06:52:34;97858.00;;;0.24;91.49
82171;BME280;71755;48.038;14.346;2023-12-28T06:54:59;97855.66;;;0.06;91.43
82171;BME280;71755;48.038;14.346;2023-12-28T06:57:26;97856.06;;;0.18;90.52
82171;BME280;71755;48.038;14.346;2023-12-28T06:59:51;97861.28;;;0.26;88.97
82171;BME280;71755;48.038;14.346;2023-12-28T07:02:17;97868.25;;;0.11;89.35
82171;BME280;71755;48.038;14.346;2023-12-28T07:04:43;97864.69;;;-0.05;90.03
82171;BME280;71755;48.038;14.346;2023-12-28T07:07:08;97876.53;;;-0.09;90.12
82171;BME280;71755;48.038;14.346;2023-12-28T07:09:35;97875.41;;;-0.14;90.27
82171;BME280;71755;48.038;14.346;2023-12-28T07:12:01;97878.19;;;-0.16;90.32
82171;BME280;71755;48.038;14.346;2023-12-28T07:14:28;97881.34;;;-0.28;90.67
82171;BME280;71755;48.038;14.346;2023-12-28T07:16:53;97876.94;;;-0.44;91.63
82171;BME280;71755;48.038;14.346;2023-12-28T07:19:19;97887.78;;;-0.47;92.18
82171;BME280;71755;48.038;14.346;2023-12-28T07:21:45;97886.44;;;-0.43;92.40
82171;BME280;71755;48.038;14.346;2023-12-28T07:24:11;97877.59;;;-0.42;92.80
82171;BME280;71755;48.038;14.346;2023-12-28T07:26:37;97876.94;;;-0.36;93.02
82171;BME280;71755;48.038;14.346;2023-12-28T07:29:04;97872.69;;;-0.37;92.19
82171;BME280;71755;48.038;14.346;2023-12-28T07:31:29;97874.97;;;-0.42;92.58
82171;BME280;71755;48.038;14.346;2023-12-28T07:33:57;97876.59;;;-0.33;92.86
82171;BME280;71755;48.038;14.346;2023-12-28T07:36:23;97866.41;;;-0.28;92.49
82171;BME280;71755;48.038;14.346;2023-12-28T07:38:48;97876.91;;;-0.20;91.87
82171;BME280;71755;48.038;14.346;2023-12-28T07:41:14;97869.84;;;-0.19;91.80
82171;BME280;71755;48.038;14.346;2023-12-28T07:43:41;97870.00;;;-0.21;92.10
82171;BME280;71755;48.038;14.346;2023-12-28T07:46:07;97875.53;;;-0.08;91.94
82171;BME280;71755;48.038;14.346;2023-12-28T07:48:33;97879.63;;;-0.05;92.56
82171;BME280;71755;48.038;14.346;2023-12-28T07:51:03;97876.50;;;-0.01;92.38
82171;BME280;71755;48.038;14.346;2023-12-28T07:53:29;97874.19;;;0.05;92.19
82171;BME280;71755;48.038;14.346;2023-12-28T07:55:54;97877.31;;;0.08;92.11
82171;BME280;71755;48.038;14.346;2023-12-28T07:58:21;97872.88;;;0.09;92.36
82171;BME280;71755;48.038;14.346;2023-12-28T08:00:47;97876.78;;;0.13;92.51
82171;BME280;71755;48.038;14.346;2023-12-28T08:03:13;97874.47;;;0.18;92.84
82171;BME280;71755;48.038;14.346;2023-12-28T08:05:41;97877.06;;;0.26;92.81
82171;BME280;71755;48.038;14.346;2023-12-28T08:08:07;97890.16;;;0.34;92.93
82171;BME280;71755;48.038;14.346;2023-12-28T08:10:33;97885.69;;;0.43;92.85
82171;BME280;71755;48.038;14.346;2023-12-28T08:12:59;97892.41;;;0.45;92.98
82171;BME280;71755;48.038;14.346;2023-12-28T08:15:25;97887.84;;;0.39;92.92
82171;BME280;71755;48.038;14.346;2023-12-28T08:17:51;97887.16;;;0.45;93.71
82171;BME280;71755;48.038;14.346;2023-12-28T08:20:17;97885.16;;;0.47;93.55
82171;BME280;71755;48.038;14.346;2023-12-28T08:22:42;97878.56;;;0.51;93.14
82171;BME280;71755;48.038;14.346;2023-12-28T08:25:08;97883.94;;;0.58;93.26
82171;BME280;71755;48.038;14.346;2023-12-28T08:27:35;97882.44;;;0.63;93.33
82171;BME280;71755;48.038;14.346;2023-12-28T08:30:00;97880.25;;;0.75;92.82
82171;BME280;71755;48.038;14.346;2023-12-28T08:32:27;97891.78;;;0.66;92.34
82171;BME280;71755;48.038;14.346;2023-12-28T08:34:53;97899.91;;;0.56;92.54
82171;BME280;71755;48.038;14.346;2023-12-28T08:37:20;97904.81;;;0.59;93.28
82171;BME280;71755;48.038;14.346;2023-12-28T08:39:46;97907.66;;;0.50;93.71
82171;BME280;71755;48.038;14.346;2023-12-28T08:42:12;97910.34;;;0.34;94.82
82171;BME280;71755;48.038;14.346;2023-12-28T08:44:38;97911.84;;;0.28;94.69
82171;BME280;71755;48.038;14.346;2023-12-28T08:47:04;97907.88;;;0.40;94.81
82171;BME280;71755;48.038;14.346;2023-12-28T08:49:30;97895.22;;;0.67;94.42
82171;BME280;71755;48.038;14.346;2023-12-28T08:51:56;97907.69;;;0.73;93.80
82171;BME280;71755;48.038;14.346;2023-12-28T08:54:21;97906.31;;;0.85;94.14
82171;BME280;71755;48.038;14.346;2023-12-28T08:56:47;97917.94;;;0.90;94.96
82171;BME280;71755;48.038;14.346;2023-12-28T08:59:13;97917.41;;;0.95;95.21
82171;BME280;71755;48.038;14.346;2023-12-28T09:01:39;97910.94;;;1.06;96.85
82171;BME280;71755;48.038;14.346;2023-12-28T09:04:04;97906.63;;;1.13;96.29
82171;BME280;71755;48.038;14.346;2023-12-28T09:06:31;97910.66;;;1.23;92.76
82171;BME280;71755;48.038;14.346;2023-12-28T09:08:56;97912.22;;;1.33;90.57
82171;BME280;71755;48.038;14.346;2023-12-28T09:11:22;97905.41;;;1.38;90.63
82171;BME280;71755;48.038;14.346;2023-12-28T09:13:48;97900.25;;;1.45;89.02
82171;BME280;71755;48.038;14.346;2023-12-28T09:16:14;97897.75;;;1.51;90.12
82171;BME280;71755;48.038;14.346;2023-12-28T09:18:41;97889.13;;;1.58;89.47
82171;BME280;71755;48.038;14.346;2023-12-28T09:21:09;97895.13;;;1.66;90.28
82171;BME280;71755;48.038;14.346;2023-12-28T09:23:35;97876.69;;;1.81;90.59
82171;BME280;71755;48.038;14.346;2023-12-28T09:26:03;97867.19;;;1.95;90.73
82171;BME280;71755;48.038;14.346;2023-12-28T09:28:30;97871.44;;;2.10;90.75
82171;BME280;71755;48.038;14.346;2023-12-28T09:30:56;97868.81;;;2.25;90.65
82171;BME280;71755;48.038;14.346;2023-12-28T09:33:22;97866.31;;;2.38;91.52
82171;BME280;71755;48.038;14.346;2023-12-28T09:35:48;97854.66;;;2.47;90.59
82171;BME280;71755;48.038;14.346;2023-12-28T09:38:14;97856.91;;;2.65;91.23
82171;BME280;71755;48.038;14.346;2023-12-28T09:40:44;97851.63;;;2.65;90.77
82171;BME280;71755;48.038;14.346;2023-12-28T09:43:23;97862.31;;;2.78;90.89
82171;BME280;71755;48.038;14.346;2023-12-28T09:45:53;97848.69;;;2.75;89.65
82171;BME280;71755;48.038;14.346;2023-12-28T09:48:21;97844.53;;;2.87;90.36
82171;BME280;71755;48.038;14.346;2023-12-28T09:50:51;97836.63;;;3.08;90.36
82171;BME280;71755;48.038;14.346;2023-12-28T09:53:26;97834.56;;;3.04;90.65
82171;BME280;71755;48.038;14.346;2023-12-28T09:55:53;97839.69;;;3.12;90.17
82171;BME280;71755;48.038;14.346;2023-12-28T09:58:20;97832.63;;;3.40;91.47
82171;BME280;71755;48.038;14.346;2023-12-28T10:00:48;97822.38;;;3.31;90.07
82171;BME280;71755;48.038;14.346;2023-12-28T10:03:15;97832.63;;;3.40;91.52
82171;BME280;71755;48.038;14.346;2023-12-28T10:05:44;97832.50;;;3.55;90.75
82171;BME280;71755;48.038;14.346;2023-12-28T10:08:17;97828.28;;;3.61;90.28
82171;BME280;71755;48.038;14.346;2023-12-28T10:10:44;97825.53;;;3.75;90.03
82171;BME280;71755;48.038;14.346;2023-12-28T10:13:18;97822.94;;;3.82;89.43
82171;BME280;71755;48.038;14.346;2023-12-28T10:15:44;97815.84;;;3.89;89.29
82171;BME280;71755;48.038;14.346;2023-12-28T10:18:10;97815.72;;;4.04;88.94
82171;BME280;71755;48.038;14.346;2023-12-28T10:20:37;97811.44;;;4.03;88.12
82171;BME280;71755;48.038;14.346;2023-12-28T10:23:03;97805.22;;;4.17;87.12
82171;BME280;71755;48.038;14.346;2023-12-28T10:25:31;97807.47;;;4.27;88.24
82171;BME280;71755;48.038;14.346;2023-12-28T10:28:04;97807.00;;;4.78;87.76
82171;BME280;71755;48.038;14.346;2023-12-28T10:30:32;97804.59;;;5.02;87.18
82171;BME280;71755;48.038;14.346;2023-12-28T10:32:57;97805.00;;;5.06;86.40
82171;BME280;71755;48.038;14.346;2023-12-28T10:35:24;97803.97;;;5.00;85.12
82171;BME280;71755;48.038;14.346;2023-12-28T10:37:52;97818.03;;;4.94;83.73
82171;BME280;71755;48.038;14.346;2023-12-28T10:40:21;97809.88;;;4.89;83.31
82171;BME280;71755;48.038;14.346;2023-12-28T10:42:52;97818.84;;;5.01;83.64
82171;BME280;71755;48.038;14.346;2023-12-28T10:45:24;97815.78;;;5.18;82.24
82171;BME280;71755;48.038;14.346;2023-12-28T10:48:13;97808.63;;;5.64;81.51
82171;BME280;71755;48.038;14.346;2023-12-28T10:50:46;97803.50;;;5.89;81.52
82171;BME280;71755;48.038;14.346;2023-12-28T10:56:22;97794.03;;;6.58;76.74
82171;BME280;71755;48.038;14.346;2023-12-28T11:01:32;97782.88;;;7.06;77.67
82171;BME280;71755;48.038;14.346;2023-12-28T11:06:43;97772.78;;;7.21;76.62
82171;BME280;71755;48.038;14.346;2023-12-28T11:09:10;97781.91;;;7.50;74.61
82171;BME280;71755;48.038;14.346;2023-12-28T11:11:38;97776.84;;;7.67;72.03
82171;BME280;71755;48.038;14.346;2023-12-28T11:14:05;97770.56;;;7.61;72.73
82171;BME280;71755;48.038;14.346;2023-12-28T11:16:33;97772.22;;;7.80;74.34
82171;BME280;71755;48.038;14.346;2023-12-28T11:18:59;97771.16;;;8.00;73.61
82171;BME280;71755;48.038;14.346;2023-12-28T11:21:26;97761.94;;;7.84;74.56
82171;BME280;71755;48.038;14.346;2023-12-28T11:23:55;97752.00;;;8.09;74.50
82171;BME280;71755;48.038;14.346;2023-12-28T11:26:22;97749.66;;;8.20;73.07
82171;BME280;71755;48.038;14.346;2023-12-28T11:28:48;97742.13;;;8.46;72.07
82171;BME280;71755;48.038;14.346;2023-12-28T11:31:18;97748.59;;;8.39;69.96
82171;BME280;71755;48.038;14.346;2023-12-28T11:33:50;97737.94;;;8.39;69.93
82171;BME280;71755;48.038;14.346;2023-12-28T11:36:34;97738.44;;;8.89;69.30
82171;BME280;71755;48.038;14.346;2023-12-28T11:39:06;97735.13;;;9.29;67.65
82171;BME280;71755;48.038;14.346;2023-12-28T11:41:38;97736.06;;;9.34;67.93
82171;BME280;71755;48.038;14.346;2023-12-28T11:44:05;97724.44;;;8.94;72.71
82171;BME280;71755;48.038;14.346;2023-12-28T11:46:35;97726.13;;;8.76;74.83
82171;BME280;71755;48.038;14.346;2023-12-28T11:51:33;97713.34;;;8.97;71.39
82171;BME280;71755;48.038;14.346;2023-12-28T11:54:01;97717.75;;;9.03;71.11
82171;BME280;71755;48.038;14.346;2023-12-28T11:56:30;97706.03;;;9.51;68.66
82171;BME280;71755;48.038;14.346;2023-12-28T11:58:57;97704.00;;;9.81;66.36
82171;BME280;71755;48.038;14.346;2023-12-28T12:01:24;97697.91;;;9.57;68.62
82171;BME280;71755;48.038;14.346;2023-12-28T12:03:50;97693.94;;;9.60;68.21
82171;BME280;71755;48.038;14.346;2023-12-28T12:06:16;97693.78;;;9.90;68.81
82171;BME280;71755;48.038;14.346;2023-12-28T12:08:49;97686.72;;;10.24;67.06
82171;BME280;71755;48.038;14.346;2023-12-28T12:11:17;97686.09;;;10.33;66.58
82171;BME280;71755;48.038;14.346;2023-12-28T12:13:44;97684.63;;;9.86;67.69
82171;BME280;71755;48.038;14.346;2023-12-28T12:16:14;97681.41;;;9.60;69.43
82171;BME280;71755;48.038;14.346;2023-12-28T12:18:40;97687.91;;;9.76;68.99
82171;BME280;71755;48.038;14.346;2023-12-28T12:21:06;97685.13;;;9.59;69.05
82171;BME280;71755;48.038;14.346;2023-12-28T12:23:31;97684.59;;;9.22;71.25
82171;BME280;71755;48.038;14.346;2023-12-28T12:25:58;97685.88;;;9.08;72.42
82171;BME280;71755;48.038;14.346;2023-12-28T12:28:24;97682.03;;;9.16;72.28
82171;BME280;71755;48.038;14.346;2023-12-28T12:30:54;97686.78;;;9.25;72.23
82171;BME280;71755;48.038;14.346;2023-12-28T12:33:22;97690.03;;;9.16;72.43
82171;BME280;71755;48.038;14.346;2023-12-28T12:35:49;97676.94;;;9.14;71.81
82171;BME280;71755;48.038;14.346;2023-12-28T12:38:16;97686.34;;;9.17;72.16
82171;BME280;71755;48.038;14.346;2023-12-28T12:40:42;97687.84;;;9.01;73.13
82171;BME280;71755;48.038;14.346;2023-12-28T12:43:08;97690.63;;;9.06;72.91
82171;BME280;71755;48.038;14.346;2023-12-28T12:45:37;97687.16;;;9.17;71.60
82171;BME280;71755;48.038;14.346;2023-12-28T12:48:03;97684.13;;;9.14;70.17
82171;BME280;71755;48.038;14.346;2023-12-28T12:50:31;97689.34;;;9.20;70.20
82171;BME280;71755;48.038;14.346;2023-12-28T12:53:01;97690.28;;;9.14;73.18
82171;BME280;71755;48.038;14.346;2023-12-28T12:55:27;97686.56;;;9.27;72.71
82171;BME280;71755;48.038;14.346;2023-12-28T12:57:53;97682.84;;;9.39;74.79
82171;BME280;71755;48.038;14.346;2023-12-28T13:00:22;97685.25;;;9.53;75.67
82171;BME280;71755;48.038;14.346;2023-12-28T13:02:51;97681.22;;;9.50;77.28
82171;BME280;71755;48.038;14.346;2023-12-28T13:05:19;97678.41;;;9.57;75.61
82171;BME280;71755;48.038;14.346;2023-12-28T13:07:45;97676.13;;;9.49;74.46